sensor_id;sensor_type;location;lat;lon;timestamp;P1;durP1;ratioP1;P2;durP2;ratioP2
30998;SDS011;20549;50.042;8.968;2023-04-02T00:01:12;2.47;;;1.33;;
30998;SDS011;20549;50.042;8.968;2023-04-02T00:06:43;0.83;;;0.80;;
30998;SDS011;20549;50.042;8.968;2023-04-02T00:08:51;3.30;;;1.13;;
30998;SDS011;20549;50.042;8.968;2023-04-02T00:11:24;1.30;;;1.20;;
30998;SDS011;20549;50.042;8.968;2023-04-02T00:13:44;1.97;;;1.10;;
30998;SDS011;20549;50.042;8.968;2023-04-02T00:16:11;1.87;;;1.10;;
30998;SDS011;20549;50.042;8.968;2023-04-02T00:18:44;0.70;;;0.70;;
30998;SDS011;20549;50.042;8.968;2023-04-02T00:21:15;0.60;;;0.60;;
30998;SDS011;20549;50.042;8.968;2023-04-02T00:23:41;1.93;;;1.20;;
30998;SDS011;20549;50.042;8.968;2023-04-02T00:26:21;1.40;;;0.90;;
30998;SDS011;20549;50.042;8.968;2023-04-02T00:28:50;1.00;;;1.00;;
30998;SDS011;20549;50.042;8.968;2023-04-02T00:31:16;1.27;;;1.00;;
30998;SDS011;20549;50.042;8.968;2023-04-02T00:33:42;2.83;;;1.10;;
30998;SDS011;20549;50.042;8.968;2023-04-02T00:36:09;1.93;;;1.33;;
30998;SDS011;20549;50.042;8.968;2023-04-02T00:38:35;3.10;;;1.40;;
30998;SDS011;20549;50.042;8.968;2023-04-02T00:41:03;2.60;;;1.57;;
30998;SDS011;20549;50.042;8.968;2023-04-02T00:43:33;2.33;;;1.70;;
30998;SDS011;20549;50.042;8.968;2023-04-02T00:45:59;2.50;;;1.60;;
30998;SDS011;20549;50.042;8.968;2023-04-02T00:51:40;2.17;;;1.60;;
30998;SDS011;20549;50.042;8.968;2023-04-02T00:53:39;2.07;;;1.63;;
30998;SDS011;20549;50.042;8.968;2023-04-02T00:56:07;2.20;;;1.40;;
30998;SDS011;20549;50.042;8.968;2023-04-02T00:58:32;1.90;;;1.60;;
30998;SDS011;20549;50.042;8.968;2023-04-02T01:00:58;2.23;;;1.80;;
30998;SDS011;20549;50.042;8.968;2023-04-02T01:03:26;2.57;;;1.23;;
30998;SDS011;20549;50.042;8.968;2023-04-02T01:05:58;1.43;;;1.33;;
30998;SDS011;20549;50.042;8.968;2023-04-02T01:13:56;2.10;;;1.40;;
30998;SDS011;20549;50.042;8.968;2023-04-02T01:19:00;1.97;;;1.33;;
30998;SDS011;20549;50.042;8.968;2023-04-02T01:24:31;1.93;;;1.33;;
30998;SDS011;20549;50.042;8.968;2023-04-02T01:27:11;1.67;;;1.50;;
30998;SDS011;20549;50.042;8.968;2023-04-02T01:30:16;1.63;;;1.07;;
30998;SDS011;20549;50.042;8.968;2023-04-02T01:32:12;1.50;;;1.40;;
30998;SDS011;20549;50.042;8.968;2023-04-02T01:34:37;1.23;;;1.20;;
30998;SDS011;20549;50.042;8.968;2023-04-02T01:42:35;1.23;;;1.20;;
30998;SDS011;20549;50.042;8.968;2023-04-02T01:45:00;1.37;;;1.27;;
30998;SDS011;20549;50.042;8.968;2023-04-02T01:47:26;1.87;;;1.40;;
30998;SDS011;20549;50.042;8.968;2023-04-02T01:50:00;1.50;;;1.30;;
30998;SDS011;20549;50.042;8.968;2023-04-02T01:52:32;2.53;;;1.27;;
30998;SDS011;20549;50.042;8.968;2023-04-02T01:54:51;1.60;;;1.50;;
30998;SDS011;20549;50.042;8.968;2023-04-02T01:57:18;2.60;;;1.30;;
30998;SDS011;20549;50.042;8.968;2023-04-02T01:59:45;1.47;;;1.37;;
30998;SDS011;20549;50.042;8.968;2023-04-02T02:02:11;1.43;;;1.33;;
30998;SDS011;20549;50.042;8.968;2023-04-02T02:04:38;1.50;;;1.40;;
30998;SDS011;20549;50.042;8.968;2023-04-02T02:07:04;1.53;;;1.43;;
30998;SDS011;20549;50.042;8.968;2023-04-02T02:09:34;1.60;;;1.37;;
30998;SDS011;20549;50.042;8.968;2023-04-02T02:12:01;1.40;;;1.30;;
30998;SDS011;20549;50.042;8.968;2023-04-02T02:14:28;1.87;;;1.40;;
30998;SDS011;20549;50.042;8.968;2023-04-02T02:16:55;1.83;;;1.50;;
30998;SDS011;20549;50.042;8.968;2023-04-02T02:22:25;2.25;;;1.37;;
30998;SDS011;20549;50.042;8.968;2023-04-02T02:25:01;1.40;;;1.30;;
30998;SDS011;20549;50.042;8.968;2023-04-02T02:30:04;1.70;;;1.60;;
30998;SDS011;20549;50.042;8.968;2023-04-02T02:32:51;1.80;;;1.70;;
30998;SDS011;20549;50.042;8.968;2023-04-02T02:35:29;2.10;;;1.50;;
30998;SDS011;20549;50.042;8.968;2023-04-02T02:37:56;1.77;;;1.60;;
30998;SDS011;20549;50.042;8.968;2023-04-02T02:40:23;2.13;;;1.60;;
30998;SDS011;20549;50.042;8.968;2023-04-02T02:42:48;1.90;;;1.80;;
30998;SDS011;20549;50.042;8.968;2023-04-02T02:45:15;1.67;;;1.57;;
30998;SDS011;20549;50.042;8.968;2023-04-02T02:47:40;2.43;;;1.90;;
30998;SDS011;20549;50.042;8.968;2023-04-02T02:50:10;2.80;;;1.63;;
30998;SDS011;20549;50.042;8.968;2023-04-02T02:52:34;1.77;;;1.67;;
30998;SDS011;20549;50.042;8.968;2023-04-02T02:55:03;1.67;;;1.57;;
30998;SDS011;20549;50.042;8.968;2023-04-02T02:57:33;2.00;;;1.70;;
30998;SDS011;20549;50.042;8.968;2023-04-02T02:59:59;2.00;;;1.80;;
30998;SDS011;20549;50.042;8.968;2023-04-02T03:02:26;1.60;;;1.60;;
30998;SDS011;20549;50.042;8.968;2023-04-02T03:04:52;2.87;;;2.10;;
30998;SDS011;20549;50.042;8.968;2023-04-02T03:07:19;1.93;;;1.83;;
30998;SDS011;20549;50.042;8.968;2023-04-02T03:12:41;2.10;;;2.00;;
30998;SDS011;20549;50.042;8.968;2023-04-02T03:15:31;2.13;;;2.03;;
30998;SDS011;20549;50.042;8.968;2023-04-02T03:18:21;2.00;;;1.80;;
30998;SDS011;20549;50.042;8.968;2023-04-02T03:20:47;2.60;;;2.10;;
30998;SDS011;20549;50.042;8.968;2023-04-02T03:23:18;2.80;;;1.90;;
30998;SDS011;20549;50.042;8.968;2023-04-02T03:25:55;1.87;;;1.70;;
30998;SDS011;20549;50.042;8.968;2023-04-02T03:28:35;2.40;;;2.10;;
30998;SDS011;20549;50.042;8.968;2023-04-02T03:31:02;2.07;;;1.97;;
30998;SDS011;20549;50.042;8.968;2023-04-02T03:33:28;2.37;;;2.17;;
30998;SDS011;20549;50.042;8.968;2023-04-02T03:38:33;2.50;;;2.10;;
30998;SDS011;20549;50.042;8.968;2023-04-02T03:41:03;2.10;;;2.00;;
30998;SDS011;20549;50.042;8.968;2023-04-02T03:43:39;3.03;;;2.00;;
30998;SDS011;20549;50.042;8.968;2023-04-02T03:46:10;2.20;;;2.10;;
30998;SDS011;20549;50.042;8.968;2023-04-02T03:48:33;2.07;;;1.93;;
30998;SDS011;20549;50.042;8.968;2023-04-02T03:51:01;2.27;;;2.03;;
30998;SDS011;20549;50.042;8.968;2023-04-02T03:53:25;2.37;;;2.17;;
30998;SDS011;20549;50.042;8.968;2023-04-02T03:55:52;2.83;;;2.40;;
30998;SDS011;20549;50.042;8.968;2023-04-02T03:58:33;2.50;;;2.30;;
30998;SDS011;20549;50.042;8.968;2023-04-02T04:01:05;2.50;;;2.30;;
30998;SDS011;20549;50.042;8.968;2023-04-02T04:03:45;3.17;;;2.50;;
30998;SDS011;20549;50.042;8.968;2023-04-02T04:06:23;3.00;;;2.70;;
30998;SDS011;20549;50.042;8.968;2023-04-02T04:08:52;2.90;;;2.70;;
30998;SDS011;20549;50.042;8.968;2023-04-02T04:11:20;3.23;;;2.40;;
30998;SDS011;20549;50.042;8.968;2023-04-02T04:14:31;2.77;;;2.57;;
30998;SDS011;20549;50.042;8.968;2023-04-02T04:16:25;2.90;;;2.70;;
30998;SDS011;20549;50.042;8.968;2023-04-02T04:18:52;2.90;;;2.70;;
30998;SDS011;20549;50.042;8.968;2023-04-02T04:21:20;3.03;;;2.80;;
30998;SDS011;20549;50.042;8.968;2023-04-02T04:23:49;2.60;;;2.30;;
30998;SDS011;20549;50.042;8.968;2023-04-02T04:26:22;2.90;;;2.60;;
30998;SDS011;20549;50.042;8.968;2023-04-02T04:29:09;3.10;;;2.80;;
30998;SDS011;20549;50.042;8.968;2023-04-02T04:31:37;2.60;;;2.40;;
30998;SDS011;20549;50.042;8.968;2023-04-02T04:34:04;2.43;;;2.33;;
30998;SDS011;20549;50.042;8.968;2023-04-02T04:36:32;2.60;;;2.40;;
30998;SDS011;20549;50.042;8.968;2023-04-02T04:38:58;2.80;;;2.60;;
30998;SDS011;20549;50.042;8.968;2023-04-02T04:41:33;3.67;;;2.40;;
30998;SDS011;20549;50.042;8.968;2023-04-02T04:44:06;2.60;;;2.40;;
30998;SDS011;20549;50.042;8.968;2023-04-02T04:46:34;3.03;;;2.70;;
30998;SDS011;20549;50.042;8.968;2023-04-02T04:49:12;2.33;;;2.23;;
30998;SDS011;20549;50.042;8.968;2023-04-02T04:54:41;2.47;;;2.37;;
30998;SDS011;20549;50.042;8.968;2023-04-02T04:57:16;2.40;;;2.20;;
30998;SDS011;20549;50.042;8.968;2023-04-02T04:59:35;2.80;;;2.60;;
30998;SDS011;20549;50.042;8.968;2023-04-02T05:04:29;3.10;;;2.60;;
30998;SDS011;20549;50.042;8.968;2023-04-02T05:09:26;3.20;;;2.90;;
30998;SDS011;20549;50.042;8.968;2023-04-02T05:12:02;2.83;;;2.63;;
30998;SDS011;20549;50.042;8.968;2023-04-02T05:14:31;4.03;;;2.50;;
30998;SDS011;20549;50.042;8.968;2023-04-02T05:16:55;2.80;;;2.60;;
30998;SDS011;20549;50.042;8.968;2023-04-02T05:19:31;2.60;;;2.40;;
30998;SDS011;20549;50.042;8.968;2023-04-02T05:22:43;3.00;;;2.80;;
30998;SDS011;20549;50.042;8.968;2023-04-02T05:24:47;2.60;;;2.40;;
30998;SDS011;20549;50.042;8.968;2023-04-02T05:27:20;3.00;;;2.70;;
30998;SDS011;20549;50.042;8.968;2023-04-02T05:29:52;2.77;;;2.57;;
30998;SDS011;20549;50.042;8.968;2023-04-02T05:32:20;2.77;;;2.57;;
30998;SDS011;20549;50.042;8.968;2023-04-02T05:34:47;3.47;;;2.83;;
30998;SDS011;20549;50.042;8.968;2023-04-02T05:37:13;2.80;;;2.60;;
30998;SDS011;20549;50.042;8.968;2023-04-02T05:39:39;3.30;;;2.90;;
30998;SDS011;20549;50.042;8.968;2023-04-02T05:42:06;3.53;;;3.23;;
30998;SDS011;20549;50.042;8.968;2023-04-02T05:44:35;3.17;;;2.97;;
30998;SDS011;20549;50.042;8.968;2023-04-02T05:47:04;3.65;;;3.40;;
30998;SDS011;20549;50.042;8.968;2023-04-02T05:49:32;2.77;;;2.57;;
30998;SDS011;20549;50.042;8.968;2023-04-02T05:52:07;3.10;;;2.80;;
30998;SDS011;20549;50.042;8.968;2023-04-02T05:57:12;2.67;;;2.47;;
30998;SDS011;20549;50.042;8.968;2023-04-02T05:59:38;3.53;;;2.93;;
30998;SDS011;20549;50.042;8.968;2023-04-02T06:02:15;3.20;;;2.90;;
30998;SDS011;20549;50.042;8.968;2023-04-02T06:04:41;2.90;;;2.70;;
30998;SDS011;20549;50.042;8.968;2023-04-02T06:07:12;2.80;;;2.60;;
30998;SDS011;20549;50.042;8.968;2023-04-02T06:12:27;2.70;;;2.50;;
30998;SDS011;20549;50.042;8.968;2023-04-02T06:14:52;3.30;;;3.07;;
30998;SDS011;20549;50.042;8.968;2023-04-02T06:17:19;3.40;;;3.10;;
30998;SDS011;20549;50.042;8.968;2023-04-02T06:19:46;3.37;;;3.00;;
30998;SDS011;20549;50.042;8.968;2023-04-02T06:25:02;3.40;;;3.10;;
30998;SDS011;20549;50.042;8.968;2023-04-02T06:27:27;2.87;;;2.67;;
30998;SDS011;20549;50.042;8.968;2023-04-02T06:29:55;2.85;;;2.65;;
30998;SDS011;20549;50.042;8.968;2023-04-02T06:32:21;3.12;;;2.85;;
30998;SDS011;20549;50.042;8.968;2023-04-02T06:34:47;2.37;;;2.22;;
30998;SDS011;20549;50.042;8.968;2023-04-02T06:37:15;3.00;;;2.80;;
30998;SDS011;20549;50.042;8.968;2023-04-02T06:39:40;2.60;;;2.45;;
30998;SDS011;20549;50.042;8.968;2023-04-02T06:42:10;3.50;;;3.10;;
30998;SDS011;20549;50.042;8.968;2023-04-02T06:44:36;3.15;;;2.90;;
30998;SDS011;20549;50.042;8.968;2023-04-02T06:47:09;3.25;;;3.05;;
30998;SDS011;20549;50.042;8.968;2023-04-02T06:49:43;3.22;;;2.92;;
30998;SDS011;20549;50.042;8.968;2023-04-02T06:52:32;2.85;;;2.65;;
30998;SDS011;20549;50.042;8.968;2023-04-02T06:54:49;3.05;;;2.85;;
30998;SDS011;20549;50.042;8.968;2023-04-02T06:57:15;2.50;;;2.30;;
30998;SDS011;20549;50.042;8.968;2023-04-02T06:59:42;1.50;;;1.43;;
30998;SDS011;20549;50.042;8.968;2023-04-02T07:02:42;0.90;;;0.90;;
30998;SDS011;20549;50.042;8.968;2023-04-02T07:04:50;0.50;;;0.50;;
30998;SDS011;20549;50.042;8.968;2023-04-02T07:07:17;0.50;;;0.50;;
30998;SDS011;20549;50.042;8.968;2023-04-02T07:09:43;0.40;;;0.40;;
30998;SDS011;20549;50.042;8.968;2023-04-02T07:12:10;1.13;;;0.90;;
30998;SDS011;20549;50.042;8.968;2023-04-02T07:14:36;0.97;;;0.80;;
30998;SDS011;20549;50.042;8.968;2023-04-02T07:17:03;2.20;;;0.60;;
30998;SDS011;20549;50.042;8.968;2023-04-02T07:19:30;1.27;;;0.50;;
30998;SDS011;20549;50.042;8.968;2023-04-02T07:21:56;0.43;;;0.43;;
30998;SDS011;20549;50.042;8.968;2023-04-02T07:24:23;0.60;;;0.50;;
30998;SDS011;20549;50.042;8.968;2023-04-02T07:26:49;0.50;;;0.50;;
30998;SDS011;20549;50.042;8.968;2023-04-02T07:29:16;0.43;;;0.43;;
30998;SDS011;20549;50.042;8.968;2023-04-02T07:31:42;0.40;;;0.40;;
30998;SDS011;20549;50.042;8.968;2023-04-02T07:34:09;0.40;;;0.40;;
30998;SDS011;20549;50.042;8.968;2023-04-02T07:36:36;0.60;;;0.60;;
30998;SDS011;20549;50.042;8.968;2023-04-02T07:39:02;0.70;;;0.70;;
30998;SDS011;20549;50.042;8.968;2023-04-02T07:41:29;0.87;;;0.87;;
30998;SDS011;20549;50.042;8.968;2023-04-02T07:43:55;0.73;;;0.73;;
30998;SDS011;20549;50.042;8.968;2023-04-02T07:46:22;0.60;;;0.60;;
30998;SDS011;20549;50.042;8.968;2023-04-02T07:48:49;0.50;;;0.50;;
30998;SDS011;20549;50.042;8.968;2023-04-02T07:53:42;0.80;;;0.80;;
30998;SDS011;20549;50.042;8.968;2023-04-02T07:56:11;0.80;;;0.80;;
30998;SDS011;20549;50.042;8.968;2023-04-02T07:58:35;0.70;;;0.70;;
30998;SDS011;20549;50.042;8.968;2023-04-02T08:01:02;2.53;;;1.57;;
30998;SDS011;20549;50.042;8.968;2023-04-02T08:03:28;0.97;;;0.97;;
30998;SDS011;20549;50.042;8.968;2023-04-02T08:05:56;1.30;;;1.20;;
30998;SDS011;20549;50.042;8.968;2023-04-02T08:08:22;0.70;;;0.50;;
30998;SDS011;20549;50.042;8.968;2023-04-02T08:10:48;0.60;;;0.60;;
30998;SDS011;20549;50.042;8.968;2023-04-02T08:13:15;0.97;;;0.97;;
30998;SDS011;20549;50.042;8.968;2023-04-02T08:15:41;0.70;;;0.57;;
30998;SDS011;20549;50.042;8.968;2023-04-02T08:18:08;0.60;;;0.60;;
30998;SDS011;20549;50.042;8.968;2023-04-02T08:20:35;0.33;;;0.33;;
30998;SDS011;20549;50.042;8.968;2023-04-02T08:23:01;0.50;;;0.50;;
30998;SDS011;20549;50.042;8.968;2023-04-02T08:25:28;0.53;;;0.53;;
30998;SDS011;20549;50.042;8.968;2023-04-02T08:27:54;0.97;;;0.90;;
30998;SDS011;20549;50.042;8.968;2023-04-02T08:30:21;0.87;;;0.80;;
30998;SDS011;20549;50.042;8.968;2023-04-02T08:32:47;0.63;;;0.63;;
30998;SDS011;20549;50.042;8.968;2023-04-02T08:35:15;0.40;;;0.40;;
30998;SDS011;20549;50.042;8.968;2023-04-02T08:37:41;0.50;;;0.50;;
30998;SDS011;20549;50.042;8.968;2023-04-02T08:40:13;0.60;;;0.60;;
30998;SDS011;20549;50.042;8.968;2023-04-02T08:42:36;0.70;;;0.70;;
30998;SDS011;20549;50.042;8.968;2023-04-02T08:47:44;0.77;;;0.77;;
30998;SDS011;20549;50.042;8.968;2023-04-02T08:50:19;0.80;;;0.80;;
30998;SDS011;20549;50.042;8.968;2023-04-02T08:52:37;0.90;;;0.90;;
30998;SDS011;20549;50.042;8.968;2023-04-02T08:55:09;1.00;;;1.00;;
30998;SDS011;20549;50.042;8.968;2023-04-02T09:00:26;3.03;;;2.20;;
30998;SDS011;20549;50.042;8.968;2023-04-02T09:02:53;1.80;;;1.70;;
30998;SDS011;20549;50.042;8.968;2023-04-02T09:05:38;0.90;;;0.90;;
30998;SDS011;20549;50.042;8.968;2023-04-02T09:07:47;1.93;;;1.77;;
30998;SDS011;20549;50.042;8.968;2023-04-02T09:10:17;2.97;;;1.80;;
30998;SDS011;20549;50.042;8.968;2023-04-02T09:12:40;2.10;;;1.80;;
30998;SDS011;20549;50.042;8.968;2023-04-02T09:17:39;1.40;;;1.30;;
30998;SDS011;20549;50.042;8.968;2023-04-02T09:20:15;1.13;;;1.10;;
30998;SDS011;20549;50.042;8.968;2023-04-02T09:22:44;1.10;;;1.10;;
30998;SDS011;20549;50.042;8.968;2023-04-02T09:25:15;0.70;;;0.70;;
30998;SDS011;20549;50.042;8.968;2023-04-02T09:27:40;0.77;;;0.77;;
30998;SDS011;20549;50.042;8.968;2023-04-02T09:32:55;0.70;;;0.70;;
30998;SDS011;20549;50.042;8.968;2023-04-02T09:35:22;0.63;;;0.63;;
30998;SDS011;20549;50.042;8.968;2023-04-02T09:37:53;0.67;;;0.67;;
30998;SDS011;20549;50.042;8.968;2023-04-02T09:40:18;0.70;;;0.70;;
30998;SDS011;20549;50.042;8.968;2023-04-02T09:42:44;1.00;;;1.00;;
30998;SDS011;20549;50.042;8.968;2023-04-02T09:45:11;0.70;;;0.70;;
30998;SDS011;20549;50.042;8.968;2023-04-02T09:47:46;1.10;;;1.00;;
30998;SDS011;20549;50.042;8.968;2023-04-02T09:50:22;0.87;;;0.87;;
30998;SDS011;20549;50.042;8.968;2023-04-02T09:52:51;0.93;;;0.93;;
30998;SDS011;20549;50.042;8.968;2023-04-02T09:55:19;0.80;;;0.80;;
30998;SDS011;20549;50.042;8.968;2023-04-02T09:57:45;0.80;;;0.80;;
30998;SDS011;20549;50.042;8.968;2023-04-02T10:00:18;0.83;;;0.83;;
30998;SDS011;20549;50.042;8.968;2023-04-02T10:02:46;0.73;;;0.73;;
30998;SDS011;20549;50.042;8.968;2023-04-02T10:05:20;1.30;;;1.20;;
30998;SDS011;20549;50.042;8.968;2023-04-02T10:07:46;1.53;;;1.07;;
30998;SDS011;20549;50.042;8.968;2023-04-02T10:10:21;0.80;;;0.80;;
30998;SDS011;20549;50.042;8.968;2023-04-02T10:12:58;1.00;;;1.00;;
30998;SDS011;20549;50.042;8.968;2023-04-02T10:15:25;1.40;;;0.90;;
30998;SDS011;20549;50.042;8.968;2023-04-02T10:18:03;0.90;;;0.90;;
30998;SDS011;20549;50.042;8.968;2023-04-02T10:20:30;0.70;;;0.70;;
30998;SDS011;20549;50.042;8.968;2023-04-02T10:22:56;0.70;;;0.70;;
30998;SDS011;20549;50.042;8.968;2023-04-02T10:25:23;0.87;;;0.87;;
30998;SDS011;20549;50.042;8.968;2023-04-02T10:33:38;0.70;;;0.70;;
30998;SDS011;20549;50.042;8.968;2023-04-02T10:36:07;0.60;;;0.60;;
30998;SDS011;20549;50.042;8.968;2023-04-02T10:41:27;0.70;;;0.70;;
30998;SDS011;20549;50.042;8.968;2023-04-02T10:44:12;1.00;;;1.00;;
30998;SDS011;20549;50.042;8.968;2023-04-02T10:46:35;0.90;;;0.90;;
30998;SDS011;20549;50.042;8.968;2023-04-02T10:49:03;0.97;;;0.97;;
30998;SDS011;20549;50.042;8.968;2023-04-02T10:51:59;0.73;;;0.73;;
30998;SDS011;20549;50.042;8.968;2023-04-02T10:54:41;0.83;;;0.83;;
30998;SDS011;20549;50.042;8.968;2023-04-02T10:59:56;0.93;;;0.80;;
30998;SDS011;20549;50.042;8.968;2023-04-02T11:02:31;1.00;;;0.83;;
30998;SDS011;20549;50.042;8.968;2023-04-02T11:05:00;0.90;;;0.90;;
30998;SDS011;20549;50.042;8.968;2023-04-02T11:07:26;1.10;;;1.10;;
30998;SDS011;20549;50.042;8.968;2023-04-02T11:09:53;1.27;;;1.10;;
30998;SDS011;20549;50.042;8.968;2023-04-02T11:12:24;1.00;;;1.00;;
30998;SDS011;20549;50.042;8.968;2023-04-02T11:14:49;1.20;;;1.10;;
30998;SDS011;20549;50.042;8.968;2023-04-02T11:17:15;1.23;;;1.13;;
30998;SDS011;20549;50.042;8.968;2023-04-02T11:19:42;1.00;;;1.00;;
30998;SDS011;20549;50.042;8.968;2023-04-02T11:22:15;1.03;;;1.00;;
30998;SDS011;20549;50.042;8.968;2023-04-02T11:24:53;0.93;;;0.93;;
30998;SDS011;20549;50.042;8.968;2023-04-02T11:27:23;0.93;;;0.90;;
30998;SDS011;20549;50.042;8.968;2023-04-02T11:29:58;2.40;;;1.60;;
30998;SDS011;20549;50.042;8.968;2023-04-02T11:32:34;1.30;;;1.20;;
30998;SDS011;20549;50.042;8.968;2023-04-02T11:34:58;1.10;;;1.00;;
30998;SDS011;20549;50.042;8.968;2023-04-02T11:37:33;0.90;;;0.90;;
30998;SDS011;20549;50.042;8.968;2023-04-02T11:42:37;1.00;;;1.00;;
30998;SDS011;20549;50.042;8.968;2023-04-02T11:50:30;1.30;;;1.20;;
30998;SDS011;20549;50.042;8.968;2023-04-02T11:55:29;2.63;;;1.33;;
30998;SDS011;20549;50.042;8.968;2023-04-02T12:01:01;1.30;;;1.20;;
30998;SDS011;20549;50.042;8.968;2023-04-02T12:03:46;1.17;;;1.17;;
30998;SDS011;20549;50.042;8.968;2023-04-02T12:09:00;1.13;;;1.13;;
30998;SDS011;20549;50.042;8.968;2023-04-02T12:11:35;1.50;;;1.40;;
30998;SDS011;20549;50.042;8.968;2023-04-02T12:14:06;1.50;;;1.20;;
30998;SDS011;20549;50.042;8.968;2023-04-02T12:16:31;1.50;;;1.40;;
30998;SDS011;20549;50.042;8.968;2023-04-02T12:18:55;4.03;;;3.23;;
30998;SDS011;20549;50.042;8.968;2023-04-02T12:21:23;2.87;;;2.07;;
30998;SDS011;20549;50.042;8.968;2023-04-02T12:23:51;1.40;;;1.30;;
30998;SDS011;20549;50.042;8.968;2023-04-02T12:26:27;1.00;;;1.00;;
30998;SDS011;20549;50.042;8.968;2023-04-02T12:28:53;1.50;;;1.40;;
30998;SDS011;20549;50.042;8.968;2023-04-02T12:31:20;1.57;;;1.47;;
30998;SDS011;20549;50.042;8.968;2023-04-02T12:33:46;2.03;;;1.47;;
30998;SDS011;20549;50.042;8.968;2023-04-02T12:38:46;1.50;;;1.40;;
30998;SDS011;20549;50.042;8.968;2023-04-02T12:41:20;1.60;;;1.50;;
30998;SDS011;20549;50.042;8.968;2023-04-02T12:43:41;1.70;;;1.60;;
30998;SDS011;20549;50.042;8.968;2023-04-02T12:46:08;3.23;;;1.47;;
30998;SDS011;20549;50.042;8.968;2023-04-02T12:48:34;1.60;;;1.50;;
30998;SDS011;20549;50.042;8.968;2023-04-02T12:51:01;1.70;;;1.60;;
30998;SDS011;20549;50.042;8.968;2023-04-02T12:53:35;2.07;;;1.90;;
30998;SDS011;20549;50.042;8.968;2023-04-02T12:56:03;2.43;;;2.23;;
30998;SDS011;20549;50.042;8.968;2023-04-02T12:58:36;1.60;;;1.50;;
30998;SDS011;20549;50.042;8.968;2023-04-02T13:01:15;1.77;;;1.60;;
30998;SDS011;20549;50.042;8.968;2023-04-02T13:03:41;1.63;;;1.53;;
30998;SDS011;20549;50.042;8.968;2023-04-02T13:06:20;1.40;;;1.40;;
30998;SDS011;20549;50.042;8.968;2023-04-02T13:08:46;1.50;;;1.40;;
30998;SDS011;20549;50.042;8.968;2023-04-02T13:11:13;2.03;;;1.83;;
30998;SDS011;20549;50.042;8.968;2023-04-02T13:13:40;2.80;;;2.60;;
30998;SDS011;20549;50.042;8.968;2023-04-02T13:18:43;2.23;;;2.03;;
30998;SDS011;20549;50.042;8.968;2023-04-02T13:23:44;2.30;;;2.10;;
30998;SDS011;20549;50.042;8.968;2023-04-02T13:28:59;1.73;;;1.63;;
30998;SDS011;20549;50.042;8.968;2023-04-02T13:31:28;2.47;;;1.63;;
30998;SDS011;20549;50.042;8.968;2023-04-02T13:33:54;1.63;;;1.53;;
30998;SDS011;20549;50.042;8.968;2023-04-02T13:36:21;2.80;;;2.60;;
30998;SDS011;20549;50.042;8.968;2023-04-02T13:38:47;4.33;;;3.93;;
30998;SDS011;20549;50.042;8.968;2023-04-02T13:41:21;2.60;;;2.40;;
30998;SDS011;20549;50.042;8.968;2023-04-02T13:43:47;1.80;;;1.70;;
30998;SDS011;20549;50.042;8.968;2023-04-02T13:46:22;1.80;;;1.70;;
30998;SDS011;20549;50.042;8.968;2023-04-02T13:48:45;2.00;;;1.90;;
30998;SDS011;20549;50.042;8.968;2023-04-02T13:51:22;2.37;;;2.17;;
30998;SDS011;20549;50.042;8.968;2023-04-02T13:53:39;3.20;;;1.90;;
30998;SDS011;20549;50.042;8.968;2023-04-02T13:56:05;2.50;;;2.30;;
30998;SDS011;20549;50.042;8.968;2023-04-02T13:58:32;2.50;;;2.30;;
30998;SDS011;20549;50.042;8.968;2023-04-02T14:00:59;2.63;;;2.43;;
30998;SDS011;20549;50.042;8.968;2023-04-02T14:03:25;3.07;;;2.87;;
30998;SDS011;20549;50.042;8.968;2023-04-02T14:08:41;3.53;;;3.23;;
30998;SDS011;20549;50.042;8.968;2023-04-02T14:14:07;4.30;;;2.80;;
30998;SDS011;20549;50.042;8.968;2023-04-02T14:16:49;3.10;;;2.90;;
30998;SDS011;20549;50.042;8.968;2023-04-02T14:22:29;2.90;;;2.70;;
30998;SDS011;20549;50.042;8.968;2023-04-02T14:24:53;2.93;;;2.73;;
30998;SDS011;20549;50.042;8.968;2023-04-02T14:27:24;3.10;;;2.90;;
30998;SDS011;20549;50.042;8.968;2023-04-02T14:30:05;3.53;;;3.23;;
30998;SDS011;20549;50.042;8.968;2023-04-02T14:32:38;3.50;;;3.20;;
30998;SDS011;20549;50.042;8.968;2023-04-02T14:35:21;3.50;;;3.00;;
30998;SDS011;20549;50.042;8.968;2023-04-02T14:37:51;4.20;;;3.80;;
30998;SDS011;20549;50.042;8.968;2023-04-02T14:40:31;3.07;;;2.87;;
30998;SDS011;20549;50.042;8.968;2023-04-02T14:43:04;3.50;;;3.20;;
30998;SDS011;20549;50.042;8.968;2023-04-02T14:50:48;4.43;;;4.03;;
30998;SDS011;20549;50.042;8.968;2023-04-02T14:55:56;3.97;;;3.67;;
30998;SDS011;20549;50.042;8.968;2023-04-02T14:58:42;5.37;;;4.10;;
30998;SDS011;20549;50.042;8.968;2023-04-02T15:01:12;4.17;;;3.87;;
30998;SDS011;20549;50.042;8.968;2023-04-02T15:03:39;4.73;;;4.23;;
30998;SDS011;20549;50.042;8.968;2023-04-02T15:06:04;3.40;;;3.10;;
30998;SDS011;20549;50.042;8.968;2023-04-02T15:08:37;3.90;;;3.60;;
30998;SDS011;20549;50.042;8.968;2023-04-02T15:11:09;4.17;;;3.77;;
30998;SDS011;20549;50.042;8.968;2023-04-02T15:16:20;3.80;;;3.50;;
30998;SDS011;20549;50.042;8.968;2023-04-02T15:18:49;3.73;;;3.47;;
30998;SDS011;20549;50.042;8.968;2023-04-02T15:23:53;4.23;;;3.43;;
30998;SDS011;20549;50.042;8.968;2023-04-02T15:26:18;4.00;;;3.70;;
30998;SDS011;20549;50.042;8.968;2023-04-02T15:31:28;5.00;;;4.00;;
30998;SDS011;20549;50.042;8.968;2023-04-02T15:36:40;2.83;;;2.63;;
30998;SDS011;20549;50.042;8.968;2023-04-02T15:42:07;2.47;;;2.30;;
30998;SDS011;20549;50.042;8.968;2023-04-02T15:44:29;3.03;;;2.83;;
30998;SDS011;20549;50.042;8.968;2023-04-02T15:47:02;2.40;;;2.20;;
30998;SDS011;20549;50.042;8.968;2023-04-02T15:54:52;2.80;;;2.60;;
30998;SDS011;20549;50.042;8.968;2023-04-02T15:59:51;3.07;;;2.77;;
30998;SDS011;20549;50.042;8.968;2023-04-02T16:05:20;2.30;;;2.10;;
30998;SDS011;20549;50.042;8.968;2023-04-02T16:11:05;2.10;;;2.00;;
30998;SDS011;20549;50.042;8.968;2023-04-02T16:13:33;3.10;;;2.33;;
30998;SDS011;20549;50.042;8.968;2023-04-02T16:18:46;2.10;;;2.00;;
30998;SDS011;20549;50.042;8.968;2023-04-02T16:21:11;3.67;;;2.90;;
30998;SDS011;20549;50.042;8.968;2023-04-02T16:23:37;2.87;;;2.67;;
30998;SDS011;20549;50.042;8.968;2023-04-02T16:28:35;2.70;;;2.37;;
30998;SDS011;20549;50.042;8.968;2023-04-02T16:33:35;2.13;;;1.93;;
30998;SDS011;20549;50.042;8.968;2023-04-02T16:36:04;3.00;;;2.50;;
30998;SDS011;20549;50.042;8.968;2023-04-02T16:44:19;2.50;;;2.30;;
30998;SDS011;20549;50.042;8.968;2023-04-02T16:49:25;2.20;;;2.00;;
30998;SDS011;20549;50.042;8.968;2023-04-02T16:52:10;2.50;;;2.30;;
30998;SDS011;20549;50.042;8.968;2023-04-02T16:54:43;2.37;;;2.10;;
30998;SDS011;20549;50.042;8.968;2023-04-02T17:00:05;3.67;;;2.30;;
30998;SDS011;20549;50.042;8.968;2023-04-02T17:07:43;2.17;;;1.80;;
30998;SDS011;20549;50.042;8.968;2023-04-02T17:15:35;3.13;;;2.23;;
30998;SDS011;20549;50.042;8.968;2023-04-02T17:18:04;2.67;;;2.47;;
30998;SDS011;20549;50.042;8.968;2023-04-02T17:20:28;4.33;;;2.70;;
30998;SDS011;20549;50.042;8.968;2023-04-02T17:22:55;5.03;;;3.13;;
30998;SDS011;20549;50.042;8.968;2023-04-02T17:25:29;2.73;;;2.50;;
30998;SDS011;20549;50.042;8.968;2023-04-02T17:27:51;2.67;;;2.43;;
30998;SDS011;20549;50.042;8.968;2023-04-02T17:32:43;3.07;;;2.77;;
30998;SDS011;20549;50.042;8.968;2023-04-02T17:35:17;2.17;;;1.97;;
30998;SDS011;20549;50.042;8.968;2023-04-02T17:40:42;4.83;;;2.50;;
30998;SDS011;20549;50.042;8.968;2023-04-02T17:43:11;4.43;;;2.40;;
30998;SDS011;20549;50.042;8.968;2023-04-02T17:48:16;2.70;;;2.23;;
30998;SDS011;20549;50.042;8.968;2023-04-02T17:50:51;2.17;;;2.00;;
30998;SDS011;20549;50.042;8.968;2023-04-02T17:53:38;2.03;;;1.87;;
30998;SDS011;20549;50.042;8.968;2023-04-02T17:56:15;2.30;;;2.00;;
30998;SDS011;20549;50.042;8.968;2023-04-02T17:58:54;1.90;;;1.80;;
30998;SDS011;20549;50.042;8.968;2023-04-02T18:01:19;3.47;;;2.47;;
30998;SDS011;20549;50.042;8.968;2023-04-02T18:03:46;2.03;;;1.87;;